createdAt,value
2018-03-31T00:02:00.076Z,96106.88
2018-03-31T00:04:26.131Z,96103.96
2018-03-31T00:06:52.276Z,96094.91
2018-03-31T00:09:18.284Z,96090.50
2018-03-31T00:11:44.378Z,96092.10
2018-03-31T00:14:10.466Z,96089.97
2018-03-31T00:16:36.477Z,96089.84
2018-03-31T00:19:02.524Z,96080.28
2018-03-31T00:21:28.589Z,96071.84
2018-03-31T00:23:54.617Z,96065.02
2018-03-31T00:26:20.635Z,96068.16
2018-03-31T00:28:46.791Z,96063.42
2018-03-31T00:31:12.813Z,96068.70
2018-03-31T00:33:38.910Z,96062.80
2018-03-31T00:36:04.973Z,96065.66
2018-03-31T00:38:31.085Z,96060.36
2018-03-31T00:40:57.116Z,96070.02
2018-03-31T00:43:23.173Z,96068.37
2018-03-31T00:45:49.219Z,96066.90
2018-03-31T00:48:15.226Z,96067.41
2018-03-31T00:50:41.283Z,96063.04
2018-03-31T00:53:07.285Z,96060.87
2018-03-31T00:55:33.349Z,96060.73
2018-03-31T00:57:59.362Z,96050.55
2018-03-31T01:00:25.469Z,96064.98
2018-03-31T01:02:51.493Z,96059.98
2018-03-31T01:05:17.526Z,96059.61
2018-03-31T01:07:43.538Z,96045.22
2018-03-31T01:10:09.532Z,96038.52
2018-03-31T01:12:35.564Z,96048.41
2018-03-31T01:15:02.642Z,96035.20
2018-03-31T01:17:28.798Z,96032.93
2018-03-31T01:19:54.831Z,96030.99
2018-03-31T01:22:20.861Z,96022.81
2018-03-31T01:24:46.981Z,96017.81
2018-03-31T01:27:13.007Z,96013.67
2018-03-31T01:29:39.024Z,96023.74
2018-03-31T01:32:05.126Z,96018.33
2018-03-31T01:34:31.159Z,96021.81
2018-03-31T01:36:57.200Z,96020.63
2018-03-31T01:39:23.262Z,96017.67
2018-03-31T01:41:49.276Z,96022.58
2018-03-31T01:44:15.297Z,96022.02
2018-03-31T01:46:41.359Z,96026.59
2018-03-31T01:49:07.435Z,96028.22
2018-03-31T01:51:33.445Z,96019.16
2018-03-31T01:53:59.498Z,96025.58
2018-03-31T01:56:25.517Z,96014.64
2018-03-31T01:58:51.536Z,96011.36
2018-03-31T02:01:17.606Z,96016.48
2018-03-31T02:03:43.617Z,96014.50
2018-03-31T02:06:09.649Z,96006.46
2018-03-31T02:08:35.656Z,96003.70
2018-03-31T02:11:01.718Z,96008.08
2018-03-31T02:13:27.729Z,95991.56
2018-03-31T02:15:53.761Z,95988.11
2018-03-31T02:18:19.761Z,95988.34
2018-03-31T02:20:45.801Z,95987.80
2018-03-31T02:23:11.805Z,95989.36
2018-03-31T02:25:37.869Z,95989.78
2018-03-31T02:28:03.935Z,95985.34
2018-03-31T02:33:02.501Z,95978.00
2018-03-31T02:35:28.614Z,95980.27
2018-03-31T02:37:54.645Z,95988.38
2018-03-31T02:40:20.655Z,95993.58
2018-03-31T02:42:46.781Z,95989.05
2018-03-31T02:45:12.785Z,95995.48
2018-03-31T02:47:38.826Z,95996.82
2018-03-31T02:50:04.964Z,95995.42
2018-03-31T02:52:30.973Z,95986.50
2018-03-31T02:54:57.029Z,95989.19
2018-03-31T02:57:23.117Z,95992.89
2018-03-31T02:59:49.184Z,95996.97
2018-03-31T03:02:15.191Z,95993.60
2018-03-31T03:04:41.262Z,95997.59
2018-03-31T03:07:07.278Z,95988.12
2018-03-31T03:09:33.297Z,95980.95
2018-03-31T03:11:59.347Z,95976.80
2018-03-31T03:14:25.422Z,95978.00
2018-03-31T03:16:51.432Z,95972.94
2018-03-31T03:19:17.436Z,95965.33
2018-03-31T03:21:43.497Z,95963.90
2018-03-31T03:24:09.521Z,95964.73
2018-03-31T03:26:35.548Z,95956.55
2018-03-31T03:29:01.557Z,95959.69
2018-03-31T03:31:27.604Z,95954.49
2018-03-31T03:33:54.393Z,95942.66
2018-03-31T03:36:20.434Z,95937.17
2018-03-31T03:38:46.500Z,95930.77
2018-03-31T03:41:12.549Z,95926.91
2018-03-31T03:43:38.573Z,95926.14
2018-03-31T03:46:04.640Z,95935.41
2018-03-31T03:48:30.761Z,95934.03
2018-03-31T03:50:56.820Z,95933.52
2018-03-31T03:53:22.941Z,95931.34
2018-03-31T03:55:48.973Z,95925.20
2018-03-31T03:58:15.004Z,95934.58
2018-03-31T04:00:41.065Z,95935.89
2018-03-31T04:03:07.100Z,95925.70
2018-03-31T04:05:33.157Z,95933.45
2018-03-31T04:07:59.236Z,95931.14
2018-03-31T04:10:25.278Z,95926.61
2018-03-31T04:12:51.276Z,95923.57
2018-03-31T04:15:17.367Z,95918.17
2018-03-31T04:17:43.378Z,95920.36
2018-03-31T04:20:09.403Z,95916.85
2018-03-31T04:22:35.436Z,95920.80
2018-03-31T04:25:01.464Z,95921.42
2018-03-31T04:27:27.478Z,95925.12
2018-03-31T04:29:53.529Z,95913.63
2018-03-31T04:32:19.542Z,95913.92
2018-03-31T04:34:45.693Z,95911.60
2018-03-31T04:37:11.748Z,95917.17
2018-03-31T04:39:37.757Z,95912.78
2018-03-31T04:42:03.846Z,95913.28
2018-03-31T04:44:29.843Z,95903.06
2018-03-31T04:46:55.877Z,95914.49
2018-03-31T04:49:21.917Z,95912.86
2018-03-31T04:51:47.994Z,95910.34
2018-03-31T04:54:14.061Z,95899.77
2018-03-31T04:56:40.125Z,95893.86
2018-03-31T04:59:06.161Z,95906.81
2018-03-31T05:01:32.253Z,95917.05
2018-03-31T05:03:58.368Z,95917.56
2018-03-31T05:06:24.438Z,95922.05
2018-03-31T05:08:50.515Z,95920.33
2018-03-31T05:11:16.612Z,95916.19
2018-03-31T05:13:42.682Z,95901.98
2018-03-31T05:16:08.724Z,95890.66
2018-03-31T05:18:34.949Z,95896.69
2018-03-31T05:21:00.982Z,95888.89
2018-03-31T05:23:27.037Z,95895.05
2018-03-31T05:25:53.120Z,95900.59
2018-03-31T05:28:19.202Z,95901.77
2018-03-31T05:30:45.231Z,95910.02
2018-03-31T05:33:11.320Z,95914.67
2018-03-31T05:35:37.357Z,95907.73
2018-03-31T05:38:03.396Z,95912.42
2018-03-31T05:40:29.481Z,95900.79
2018-03-31T05:42:55.476Z,95903.18
2018-03-31T05:45:21.506Z,95894.48
2018-03-31T05:47:47.557Z,95893.30
2018-03-31T05:50:13.624Z,95897.80
2018-03-31T05:52:39.639Z,95895.08
2018-03-31T05:55:05.677Z,95895.53
2018-03-31T05:57:31.683Z,95893.20
2018-03-31T05:59:57.720Z,95892.83
2018-03-31T06:02:23.756Z,95900.19
2018-03-31T06:04:49.757Z,95898.41
2018-03-31T06:07:15.808Z,95908.09
2018-03-31T06:09:41.809Z,95909.88
2018-03-31T06:12:07.868Z,95898.73
2018-03-31T06:14:33.878Z,95897.72
2018-03-31T06:16:59.923Z,95893.63
2018-03-31T06:19:25.962Z,95900.16
2018-03-31T06:21:52.002Z,95901.56
2018-03-31T06:24:18.014Z,95900.81
2018-03-31T06:26:44.021Z,95908.36
2018-03-31T06:29:10.050Z,95907.72
2018-03-31T06:31:36.097Z,95918.36
2018-03-31T06:34:02.136Z,95936.36
2018-03-31T06:36:28.150Z,95934.17
2018-03-31T06:38:54.180Z,95935.34
2018-03-31T06:41:20.195Z,95936.66
2018-03-31T06:43:46.361Z,95949.48
2018-03-31T06:46:12.390Z,95946.52
2018-03-31T06:48:38.457Z,95954.44
2018-03-31T06:51:04.456Z,95951.23
2018-03-31T06:53:30.505Z,95955.27
2018-03-31T06:55:56.569Z,95955.85
2018-03-31T06:58:22.592Z,95951.91
2018-03-31T07:00:48.676Z,95950.57
2018-03-31T07:03:14.725Z,95954.23
2018-03-31T07:05:40.753Z,95955.45
2018-03-31T07:08:06.761Z,95959.72
2018-03-31T07:10:32.784Z,95959.93
2018-03-31T07:12:58.797Z,95957.23
2018-03-31T07:15:24.833Z,95956.94
2018-03-31T07:17:50.836Z,95951.70
2018-03-31T07:20:16.836Z,95955.52
2018-03-31T07:22:42.893Z,95951.41
2018-03-31T07:25:08.901Z,95947.00
2018-03-31T07:27:34.977Z,95944.16
2018-03-31T07:30:00.984Z,95947.49
2018-03-31T07:32:27.008Z,95928.94
2018-03-31T07:34:53.029Z,95923.83
2018-03-31T07:37:19.073Z,95923.72
2018-03-31T07:39:45.086Z,95929.20
2018-03-31T07:42:11.118Z,95923.16
2018-03-31T07:44:37.119Z,95921.50
2018-03-31T07:47:03.197Z,95921.83
2018-03-31T07:49:29.245Z,95925.07
2018-03-31T07:51:55.253Z,95922.32
2018-03-31T07:54:21.308Z,95918.35
2018-03-31T07:56:47.326Z,95915.95
2018-03-31T07:59:13.353Z,95920.25
2018-03-31T08:01:39.369Z,95914.83
2018-03-31T08:04:05.450Z,95917.92
2018-03-31T08:06:31.461Z,95911.70
2018-03-31T08:08:57.544Z,95921.17
2018-03-31T08:11:23.573Z,95920.86
2018-03-31T08:13:49.596Z,95925.39
2018-03-31T08:16:15.634Z,95931.90
2018-03-31T08:18:41.651Z,95930.12
2018-03-31T08:21:07.693Z,95927.54
2018-03-31T08:23:33.713Z,95930.33
2018-03-31T08:25:59.750Z,95930.56
2018-03-31T08:28:25.780Z,95925.37
2018-03-31T08:30:51.820Z,95924.03
2018-03-31T08:33:17.829Z,95925.11
2018-03-31T08:35:43.881Z,95929.77
2018-03-31T08:38:09.893Z,95931.38
2018-03-31T08:40:35.914Z,95932.52
2018-03-31T08:43:01.983Z,95931.13
2018-03-31T08:45:28.038Z,95938.05
2018-03-31T08:47:54.197Z,95929.20
2018-03-31T08:50:20.249Z,95935.12
2018-03-31T08:52:46.313Z,95937.38
2018-03-31T08:55:12.800Z,95936.11
2018-03-31T08:57:38.837Z,95938.33
2018-03-31T09:00:04.864Z,95936.79
2018-03-31T09:02:30.904Z,95937.63
2018-03-31T09:04:56.948Z,95937.86
2018-03-31T09:07:22.958Z,95943.53
2018-03-31T09:09:48.990Z,95941.06
2018-03-31T09:12:14.998Z,95950.36
2018-03-31T09:14:41.166Z,95947.52
2018-03-31T09:17:07.251Z,95945.63
2018-03-31T09:19:33.285Z,95950.12
2018-03-31T09:21:59.373Z,95947.30
2018-03-31T09:24:25.454Z,95945.83
2018-03-31T09:26:51.514Z,95947.09
2018-03-31T09:29:17.570Z,95944.78
2018-03-31T09:31:43.584Z,95935.72
2018-03-31T09:34:09.587Z,95931.25
2018-03-31T09:36:35.638Z,95938.34
2018-03-31T09:39:01.717Z,95946.83
2018-03-31T09:41:27.883Z,95944.56
2018-03-31T09:43:53.920Z,95953.39
2018-03-31T09:46:19.948Z,95958.20
2018-03-31T09:48:45.957Z,95954.26
2018-03-31T09:51:11.986Z,95953.97
2018-03-31T09:53:38.023Z,95944.58
2018-03-31T09:56:04.072Z,95943.83
2018-03-31T09:58:30.077Z,95951.66
2018-03-31T10:01:02.265Z,95949.23
2018-03-31T10:03:28.303Z,95944.32
2018-03-31T10:05:54.386Z,95949.28
2018-03-31T10:08:20.440Z,95953.13
2018-03-31T10:10:46.472Z,95953.54
2018-03-31T10:13:12.505Z,95957.94
2018-03-31T10:15:38.553Z,95957.77
2018-03-31T10:18:04.586Z,95954.51
2018-03-31T10:20:30.600Z,95954.80
2018-03-31T10:22:56.742Z,95963.17
2018-03-31T10:25:22.769Z,95961.05
2018-03-31T10:27:48.783Z,95952.46
2018-03-31T10:30:14.810Z,95949.22
2018-03-31T10:32:40.840Z,95953.70
2018-03-31T10:35:07.207Z,95938.63
2018-03-31T10:37:33.256Z,95942.27
2018-03-31T10:39:59.324Z,95935.57
2018-03-31T10:42:25.511Z,95938.20
2018-03-31T10:44:51.603Z,95948.30
2018-03-31T10:47:17.722Z,95942.73
2018-03-31T10:49:43.789Z,95933.95
2018-03-31T10:52:09.829Z,95922.19
2018-03-31T10:54:35.845Z,95922.66
2018-03-31T10:57:01.890Z,95929.27
2018-03-31T10:59:27.911Z,95928.14
2018-03-31T11:01:53.946Z,95927.09
2018-03-31T11:04:19.961Z,95932.02
2018-03-31T11:06:46.001Z,95935.06
2018-03-31T11:09:12.006Z,95941.84
2018-03-31T11:11:38.039Z,95941.77
2018-03-31T11:14:04.176Z,95939.05
2018-03-31T11:16:30.202Z,95943.32
2018-03-31T11:18:56.223Z,95947.80
2018-03-31T11:21:22.293Z,95938.75
2018-03-31T11:23:48.317Z,95932.70
2018-03-31T11:26:14.397Z,95931.64
2018-03-31T11:28:40.417Z,95941.63
2018-03-31T11:31:06.441Z,95945.34
2018-03-31T11:33:32.479Z,95959.40
2018-03-31T11:35:58.482Z,95957.30
2018-03-31T11:38:24.544Z,95955.49
2018-03-31T11:40:50.552Z,95959.02
2018-03-31T11:43:16.576Z,95978.98
2018-03-31T11:45:42.614Z,95981.21
2018-03-31T11:48:08.674Z,95981.30
2018-03-31T11:50:34.680Z,95983.75
2018-03-31T11:53:00.750Z,95976.13
2018-03-31T11:55:26.762Z,95974.77
2018-03-31T11:57:52.774Z,95972.70
2018-03-31T12:00:18.839Z,95975.45
2018-03-31T12:02:44.857Z,95983.63
2018-03-31T12:05:10.881Z,95994.99
2018-03-31T12:07:36.924Z,95994.36
2018-03-31T12:10:02.959Z,95993.73
2018-03-31T12:12:29.012Z,96002.95
2018-03-31T12:14:55.044Z,96005.03
2018-03-31T12:17:21.045Z,96003.64
2018-03-31T12:19:47.065Z,96007.23
2018-03-31T12:22:13.102Z,96005.12
2018-03-31T12:24:39.114Z,96006.00
2018-03-31T12:27:05.270Z,96004.46
2018-03-31T12:29:31.428Z,95997.52
2018-03-31T12:31:57.519Z,96002.70
2018-03-31T12:34:23.661Z,95994.88
2018-03-31T12:36:49.728Z,95987.83
2018-03-31T12:39:15.769Z,95982.20
2018-03-31T12:41:41.808Z,95990.25
2018-03-31T12:44:07.818Z,95987.95
2018-03-31T12:46:33.829Z,95989.50
2018-03-31T12:48:59.952Z,95987.07
2018-03-31T12:51:25.962Z,95981.55
2018-03-31T12:53:52.242Z,95981.70
2018-03-31T12:56:18.239Z,95983.20
2018-03-31T12:58:44.296Z,95973.88
2018-03-31T13:01:10.348Z,95986.70
2018-03-31T13:03:36.380Z,95981.88
2018-03-31T13:06:02.386Z,95982.50
2018-03-31T13:08:28.502Z,95984.13
2018-03-31T13:10:54.716Z,95984.48
2018-03-31T13:13:20.772Z,95982.71
2018-03-31T13:15:46.801Z,95987.09
2018-03-31T13:18:12.842Z,95981.02
2018-03-31T13:20:38.947Z,95978.04
2018-03-31T13:23:04.959Z,95976.16
2018-03-31T13:25:30.989Z,95986.23
2018-03-31T13:27:57.088Z,95983.31
2018-03-31T13:30:23.118Z,95979.77
2018-03-31T13:32:49.149Z,95979.52
2018-03-31T13:35:15.201Z,95975.69
2018-03-31T13:37:41.213Z,95973.92
2018-03-31T13:40:07.221Z,95984.13
2018-03-31T13:42:33.258Z,95976.19
2018-03-31T13:44:59.266Z,95978.95
2018-03-31T13:47:25.290Z,95980.92
2018-03-31T13:49:51.310Z,95978.67
2018-03-31T13:52:17.344Z,95983.89
2018-03-31T13:54:43.354Z,95979.55
2018-03-31T13:57:09.390Z,95982.06
2018-03-31T13:59:35.410Z,95978.66
2018-03-31T14:02:01.466Z,95986.13
2018-03-31T14:04:27.474Z,95984.33
2018-03-31T14:06:53.566Z,95978.95
2018-03-31T14:09:19.593Z,95984.85
2018-03-31T14:11:45.647Z,95976.16
2018-03-31T14:14:11.708Z,95979.72
2018-03-31T14:16:37.725Z,95980.97
2018-03-31T14:19:03.771Z,95980.76
2018-03-31T14:21:29.795Z,95985.52
2018-03-31T14:23:55.841Z,95982.88
2018-03-31T14:26:21.859Z,95987.42
2018-03-31T14:28:47.901Z,95977.50
2018-03-31T14:31:13.917Z,95978.88
2018-03-31T14:33:39.978Z,95981.66
2018-03-31T14:36:06.021Z,95981.28
2018-03-31T14:38:32.025Z,95989.33
2018-03-31T14:40:58.070Z,95986.81
2018-03-31T14:43:24.125Z,95984.54
2018-03-31T14:45:50.172Z,95989.31
2018-03-31T14:48:16.197Z,95986.30
2018-03-31T14:50:42.229Z,95990.67
2018-03-31T14:53:08.241Z,95978.99
2018-03-31T14:55:34.285Z,95988.53
2018-03-31T14:58:00.292Z,95983.13
2018-03-31T15:00:26.302Z,95993.30
2018-03-31T15:02:52.361Z,95990.05
2018-03-31T15:05:18.374Z,95986.16
2018-03-31T15:07:44.396Z,95992.92
2018-03-31T15:10:10.458Z,95995.47
2018-03-31T15:12:37.685Z,95992.20
2018-03-31T15:15:03.762Z,95994.33
2018-03-31T15:17:29.740Z,95990.69
2018-03-31T15:19:55.781Z,95995.84
2018-03-31T15:22:21.830Z,95991.56
2018-03-31T15:24:47.932Z,95989.44
2018-03-31T15:27:13.982Z,95987.05
2018-03-31T15:29:40.014Z,95986.95
2018-03-31T15:32:06.084Z,95991.47
2018-03-31T15:34:32.212Z,95992.95
2018-03-31T15:36:58.248Z,95997.09
2018-03-31T15:39:24.296Z,95998.23
2018-03-31T15:41:50.325Z,95996.73
2018-03-31T15:44:16.359Z,95993.48
2018-03-31T15:46:42.398Z,95998.48
2018-03-31T15:49:08.476Z,96001.75
2018-03-31T15:51:34.509Z,96004.02
2018-03-31T15:54:00.594Z,96004.76
2018-03-31T15:56:26.626Z,96002.75
2018-03-31T15:58:52.633Z,96007.91
2018-03-31T16:01:18.665Z,96008.90
2018-03-31T16:03:44.687Z,96010.30
2018-03-31T16:06:10.711Z,96013.80
2018-03-31T16:08:36.731Z,96012.30
2018-03-31T16:11:02.769Z,96009.02
2018-03-31T16:13:28.779Z,96007.27
2018-03-31T16:15:54.825Z,96007.66
2018-03-31T16:18:20.866Z,96006.77
2018-03-31T16:20:46.897Z,96002.99
2018-03-31T16:23:13.001Z,96009.75
2018-03-31T16:25:39.005Z,96008.50
2018-03-31T16:28:05.096Z,96018.77
2018-03-31T16:30:31.116Z,96023.28
2018-03-31T16:32:57.201Z,96020.79
2018-03-31T16:35:23.226Z,96024.05
2018-03-31T16:37:49.261Z,96029.69
2018-03-31T16:40:15.324Z,96022.67
2018-03-31T16:42:41.336Z,96026.20
2018-03-31T16:45:07.361Z,96020.42
2018-03-31T16:47:33.372Z,96023.05
2018-03-31T16:49:59.405Z,96026.56
2018-03-31T16:52:25.438Z,96027.72
2018-03-31T16:54:51.470Z,96033.23
2018-03-31T16:57:17.470Z,96031.34
2018-03-31T16:59:43.517Z,96036.98
2018-03-31T17:02:09.510Z,96039.73
2018-03-31T17:04:35.544Z,96040.36
2018-03-31T17:07:01.558Z,96040.74
2018-03-31T17:09:27.601Z,96034.96
2018-03-31T17:11:53.607Z,96036.80
2018-03-31T17:14:19.650Z,96045.06
2018-03-31T17:16:45.724Z,96041.17
2018-03-31T17:19:11.740Z,96041.67
2018-03-31T17:21:37.777Z,96031.13
2018-03-31T17:24:03.798Z,96030.61
2018-03-31T17:26:29.866Z,96026.62
2018-03-31T17:28:55.868Z,96024.38
2018-03-31T17:31:21.893Z,96020.13
2018-03-31T17:33:47.925Z,96015.48
2018-03-31T17:36:13.957Z,96022.39
2018-03-31T17:38:40.002Z,96018.27
2018-03-31T17:41:06.030Z,96018.78
2018-03-31T17:43:32.086Z,96012.86
2018-03-31T17:45:58.107Z,96010.50
2018-03-31T17:48:24.136Z,96004.20
2018-03-31T17:50:50.258Z,95998.70
2018-03-31T17:53:16.299Z,95998.93
2018-03-31T17:55:42.301Z,95991.66
2018-03-31T17:58:08.420Z,95994.67
2018-03-31T18:00:34.430Z,95987.68
2018-03-31T18:03:00.446Z,95981.77
2018-03-31T18:05:26.494Z,95980.88
2018-03-31T18:07:52.491Z,95985.00
2018-03-31T18:10:18.538Z,95981.01
2018-03-31T18:12:44.532Z,95977.27
2018-03-31T18:15:10.569Z,95981.16
2018-03-31T18:17:36.582Z,95979.92
2018-03-31T18:20:02.674Z,95980.03
2018-03-31T18:22:28.661Z,95985.31
2018-03-31T18:24:54.710Z,95985.45
2018-03-31T18:27:20.752Z,95989.57
2018-03-31T18:29:46.754Z,95987.95
2018-03-31T18:32:12.788Z,95981.69
2018-03-31T18:34:38.836Z,95987.58
2018-03-31T18:37:05.141Z,95989.45
2018-03-31T18:39:31.159Z,95990.06
2018-03-31T18:41:57.262Z,95986.56
2018-03-31T18:44:23.474Z,95985.80
2018-03-31T18:46:49.545Z,95998.33
2018-03-31T18:49:16.172Z,96004.06
2018-03-31T18:51:42.534Z,96011.09
2018-03-31T18:54:08.988Z,96014.72
2018-03-31T18:56:35.630Z,96026.39
2018-03-31T18:59:02.064Z,96028.64
2018-03-31T19:01:29.003Z,96035.92
2018-03-31T19:03:55.488Z,96040.06
2018-03-31T19:06:22.260Z,96046.30
2018-03-31T19:08:48.787Z,96049.79
2018-03-31T19:11:15.211Z,96047.13
2018-03-31T19:13:41.840Z,96053.80
2018-03-31T19:16:08.315Z,96065.28
2018-03-31T19:18:35.145Z,96057.75
2018-03-31T19:21:01.585Z,96063.47
2018-03-31T19:23:28.503Z,96068.09
2018-03-31T19:25:55.265Z,96079.62
2018-03-31T19:28:21.831Z,96082.75
2018-03-31T19:30:50.190Z,96093.56
2018-03-31T19:33:16.991Z,96086.45
2018-03-31T19:35:49.504Z,96096.72
2018-03-31T19:38:16.245Z,96107.13
2018-03-31T19:40:42.863Z,96109.90
2018-03-31T19:43:09.910Z,96115.67
2018-03-31T19:45:36.151Z,96121.75
2018-03-31T19:48:02.186Z,96112.97
2018-03-31T19:50:28.248Z,96114.02
2018-03-31T19:52:54.309Z,96118.47
2018-03-31T19:55:20.356Z,96114.67
2018-03-31T19:57:46.408Z,96117.23
2018-03-31T20:00:12.474Z,96115.02
2018-03-31T20:02:38.521Z,96121.13
2018-03-31T20:05:04.566Z,96121.87
2018-03-31T20:07:30.651Z,96114.28
2018-03-31T20:09:56.760Z,96124.47
2018-03-31T20:12:22.890Z,96135.08
2018-03-31T20:14:48.968Z,96132.75
2018-03-31T20:17:15.023Z,96136.33
2018-03-31T20:19:41.247Z,96130.91
2018-03-31T20:22:07.316Z,96119.24
2018-03-31T20:24:33.339Z,96118.47
2018-03-31T20:26:59.363Z,96124.13
2018-03-31T20:29:25.450Z,96131.13
2018-03-31T20:31:51.504Z,96130.16
2018-03-31T20:34:17.581Z,96129.94
2018-03-31T20:36:43.633Z,96132.30
2018-03-31T20:39:09.712Z,96132.11
2018-03-31T20:41:35.768Z,96131.79
2018-03-31T20:44:01.793Z,96131.03
2018-03-31T20:46:28.027Z,96131.36
2018-03-31T20:48:54.070Z,96134.11
2018-03-31T20:51:20.173Z,96141.95
2018-03-31T20:53:46.465Z,96139.42
2018-03-31T20:56:12.533Z,96135.92
2018-03-31T20:58:38.552Z,96122.56
2018-03-31T21:01:04.690Z,96122.25
2018-03-31T21:03:30.741Z,96121.41
2018-03-31T21:05:56.790Z,96112.06
2018-03-31T21:08:22.993Z,96110.84
2018-03-31T21:10:49.007Z,96107.87
2018-03-31T21:13:15.032Z,96106.99
2018-03-31T21:15:41.141Z,96118.05
2018-03-31T21:18:07.202Z,96118.05
2018-03-31T21:20:33.243Z,96125.13
2018-03-31T21:22:59.340Z,96131.67
2018-03-31T21:25:25.366Z,96127.64
2018-03-31T21:27:51.405Z,96130.77
2018-03-31T21:30:17.460Z,96132.01
2018-03-31T21:32:43.481Z,96133.23
2018-03-31T21:35:09.626Z,96132.01
2018-03-31T21:37:35.645Z,96135.92
2018-03-31T21:40:01.686Z,96129.63
2018-03-31T21:42:27.713Z,96127.42
2018-03-31T21:44:53.789Z,96131.67
2018-03-31T21:47:19.832Z,96137.16
2018-03-31T21:49:45.876Z,96130.91
2018-03-31T21:52:11.893Z,96139.17
2018-03-31T21:54:37.933Z,96130.86
2018-03-31T21:57:04.020Z,96128.59
2018-03-31T21:59:30.065Z,96134.94
2018-03-31T22:01:56.137Z,96144.72
2018-03-31T22:04:22.148Z,96140.67
2018-03-31T22:06:48.177Z,96141.36
2018-03-31T22:12:04.537Z,96143.11
2018-03-31T22:14:36.889Z,96144.11
2018-03-31T22:17:02.919Z,96143.67
2018-03-31T22:19:29.098Z,96136.97
2018-03-31T22:21:55.257Z,96141.98
2018-03-31T22:24:21.310Z,96144.05
2018-03-31T22:26:47.543Z,96145.70
2018-03-31T22:29:13.577Z,96147.70
2018-03-31T22:31:39.585Z,96144.62
2018-03-31T22:34:06.018Z,96147.80
2018-03-31T22:36:32.021Z,96148.03
2018-03-31T22:38:58.034Z,96147.18
2018-03-31T22:41:24.333Z,96142.77
2018-03-31T22:43:50.357Z,96144.58
2018-03-31T22:46:16.361Z,96152.95
2018-03-31T22:48:42.630Z,96163.25
2018-03-31T22:51:08.629Z,96158.43
2018-03-31T22:53:34.681Z,96140.23
2018-03-31T22:56:00.970Z,96149.30
2018-03-31T22:58:26.977Z,96150.40
2018-03-31T23:00:53.095Z,96152.22
2018-03-31T23:03:19.231Z,96146.04
2018-03-31T23:05:45.254Z,96146.69
2018-03-31T23:08:11.484Z,96149.42
2018-03-31T23:10:37.548Z,96151.47
2018-03-31T23:13:03.555Z,96150.52
2018-03-31T23:15:29.862Z,96150.80
2018-03-31T23:17:55.924Z,96156.08
2018-03-31T23:20:21.953Z,96153.80
2018-03-31T23:22:48.268Z,96153.42
2018-03-31T23:25:14.348Z,96156.08
2018-03-31T23:27:40.360Z,96151.97
2018-03-31T23:30:06.608Z,96157.47
2018-03-31T23:32:32.661Z,96153.14
2018-03-31T23:34:58.657Z,96158.75
2018-03-31T23:37:24.804Z,96156.85
2018-03-31T23:39:50.873Z,96158.36
2018-03-31T23:42:16.944Z,96157.64
2018-03-31T23:44:43.193Z,96159.52
2018-03-31T23:47:09.227Z,96156.64
2018-03-31T23:49:35.364Z,96159.22
2018-03-31T23:52:01.509Z,96163.73
2018-03-31T23:54:27.557Z,96162.98
2018-03-31T23:56:53.800Z,96156.97
2018-03-31T23:59:19.836Z,96164.42
